Dvinskoy Bereznik, Russia
Current Conditions -  °F | °C
As of 4:32 AM on Tuesday 25 Nov 2014 (Local Time) from UUYY Reporting Station
Snow Showers Snow Showers  
Wind Chill: 17°   Ceiling: 1500
Heat Index: 25°   Visibility: 0.68mi
Dew Point: 23°   Wind: 7mph
Humidity: 93%   Direction: 240°WSW
Pressure: 30.21"   Gusts: 13mph
Location:  61.7°N, 45.53°E
Report Text: UUYY 250132Z 24003G06MPS 1100 R19/P1500D SHSN SCT003 BKN015CB OVC066 M04/M05 Q1023 TEMPO 0700 +SHSN 1942//45 RMK QBB110 QFE759/1012
Loading
Personal Weather Stations






























Interactive Weather Map New forecast layout! Learn more

10-Day Weather Forecast

Advertisements
Track Severe Weather on mobile